KAXV/AXV METAR and TAF weather

Enter ICAO airport designator
Station Type Date Time Source
KAXV METAR 2019/07/18 10:56 UTC NOAA

KAXV 181056Z AUTO 00000KT 4SM BR CLR 21/21 A2996 RMK AO2


Station Type Date Time Source
KAXV Decoded METAR 2019/07/18 10:56 UTC NOAA

Station name not available
Jul 18, 2019 - 06:56 AM EDT / 2019.07.18 1056 UTC
Wind: Calm:0
Visibility: 4 mile(s):0
Sky conditions: clear
Weather: mist
Temperature: 69 F (21 C)
Dew Point: 69 F (21 C)
Relative Humidity: 100%
Pressure (altimeter): 29.96 in. Hg (1014 hPa)
ob: KAXV 181056Z AUTO 00000KT 4SM BR CLR 21/21 A2996 RMK AO2
cycle: 11

Station Type Date Time Source
KAXV TAF UTC NOAA

Error!

Example: see airport list